Time;durP1;ratioP1;P1;durP2;ratioP2;P2;SDS_P1;SDS_P2;PMS_P1;PMS_P2;Temp;Humidity;BMP_temperature;BMP_pressure;BME280_temperature;BME280_humidity;BME280_pressure;Samples;Min_cycle;Max_cycle;Signal;HPM_P1;HPM_P2
2022/01/21 00:03:10;;;;;;;10.07;2.95;;;;;;;2.84;99.48;103500.06;10483343;28;20032;-82
2022/01/21 00:08:11;;;;;;;13.43;3.40;;;;;;;2.73;99.20;103514.03;10510090;28;20090;-81
2022/01/21 00:13:20;;;;;;;11.25;3.10;;;;;;;2.64;99.66;103510.03;10507682;28;20527;-81
2022/01/21 00:18:20;;;;;;;13.02;2.15;;;;;;;2.64;99.73;103517.19;10482965;28;20033;-83
2022/01/21 00:33:59;;;;;;;7.30;3.25;;;;;;;3.02;100.00;103520.47;10504581;28;20037;-82
2022/01/21 00:38:59;;;;;;;11.38;2.65;;;;;;;3.20;100.00;103510.59;10487474;28;20056;-81
2022/01/21 00:44:00;;;;;;;15.43;3.92;;;;;;;3.36;100.00;103511.44;10504071;28;20033;-81
2022/01/21 00:49:01;;;;;;;17.00;2.45;;;;;;;3.45;100.00;103513.63;10472258;28;20067;-81
2022/01/21 00:54:02;;;;;;;18.02;2.83;;;;;;;3.51;100.00;103517.78;10490114;28;20032;-81
2022/01/21 00:59:02;;;;;;;13.40;2.97;;;;;;;3.40;100.00;103509.47;10507278;28;20036;-81
2022/01/21 01:04:04;;;;;;;4.40;2.13;;;;;;;3.20;100.00;103510.59;10507456;28;20460;-82
2022/01/21 01:09:04;;;;;;;7.22;2.17;;;;;;;3.23;100.00;103524.66;10488523;28;20032;-81
2022/01/21 01:30:02;;;;;;;3.20;2.35;;;;;;;3.08;100.00;103521.97;10498241;28;20048;-79
2022/01/21 01:35:03;;;;;;;3.83;2.17;;;;;;;2.95;100.00;103514.59;10498451;28;20045;-79
2022/01/21 01:40:22;;;;;;;7.22;2.63;;;;;;;2.80;99.53;103510.06;10499691;28;20079;-80
2022/01/21 01:50:42;;;;;;;7.53;2.85;;;;;;;2.75;100.00;103515.69;10498206;28;20056;-78
2022/01/21 01:55:42;;;;;;;4.32;2.78;;;;;;;2.85;100.00;103512.53;10497876;28;20060;-79
2022/01/21 02:00:43;;;;;;;7.78;2.40;;;;;;;2.89;100.00;103506.91;10508220;28;20048;-80
2022/01/21 02:05:43;;;;;;;13.95;2.60;;;;;;;2.74;100.00;103510.41;10499291;28;20115;-80
2022/01/21 02:10:44;;;;;;;9.85;3.05;;;;;;;2.71;100.00;103507.88;10480941;28;20033;-80
2022/01/21 02:16:05;;;;;;;3.85;1.98;;;;;;;2.60;100.00;103503.13;10498898;28;20396;-79
2022/01/21 02:21:36;;;;;;;5.28;2.08;;;;;;;2.54;100.00;103501.63;10498435;28;20029;-79
2022/01/21 02:26:37;;;;;;;5.43;2.63;;;;;;;2.45;99.56;103515.47;10485450;28;20028;-78
2022/01/21 02:31:39;;;;;;;14.70;2.83;;;;;;;2.39;100.00;103521.13;10496872;28;20575;-80
2022/01/21 02:36:39;;;;;;;17.67;2.28;;;;;;;2.55;100.00;103527.44;10498155;28;20033;-80
2022/01/21 02:41:40;;;;;;;6.55;1.48;;;;;;;2.89;100.00;103524.78;10498000;28;20476;-79
2022/01/21 02:46:41;;;;;;;4.43;3.08;;;;;;;3.13;100.00;103511.88;10498674;28;20120;-80
2022/01/21 02:51:42;;;;;;;4.78;1.80;;;;;;;3.21;100.00;103526.53;10496544;28;20530;-80
2022/01/21 02:56:42;;;;;;;8.55;2.28;;;;;;;3.25;100.00;103516.53;10498656;28;20094;-79
2022/01/21 03:01:44;;;;;;;2.55;1.73;;;;;;;3.28;100.00;103497.63;10496240;28;20042;-79
2022/01/21 03:06:44;;;;;;;3.70;2.17;;;;;;;3.07;100.00;103497.00;10502258;28;20090;-78
2022/01/21 03:11:44;;;;;;;3.38;1.88;;;;;;;2.78;100.00;103490.56;10505296;28;20386;-78
2022/01/21 03:16:45;;;;;;;11.40;1.88;;;;;;;2.50;100.00;103504.56;10504269;28;20068;-79
2022/01/21 03:21:45;;;;;;;4.20;2.17;;;;;;;2.35;100.00;103508.88;10504643;28;20119;-79
2022/01/21 03:26:46;;;;;;;6.78;1.58;;;;;;;2.16;100.00;103521.47;10504628;28;20086;-79
2022/01/21 03:31:46;;;;;;;2.35;2.13;;;;;;;2.06;100.00;103507.72;10505622;28;20044;-80
2022/01/21 03:36:47;;;;;;;1.95;1.50;;;;;;;1.98;100.00;103516.13;10486645;28;20036;-81
2022/01/21 03:41:47;;;;;;;4.88;2.38;;;;;;;2.08;100.00;103506.69;10486220;28;20377;-79
2022/01/21 03:46:48;;;;;;;5.35;1.88;;;;;;;2.35;100.00;103516.91;10504748;28;20111;-80
2022/01/21 03:51:48;;;;;;;8.55;2.42;;;;;;;2.45;100.00;103517.28;10504189;28;20036;-79
2022/01/21 03:56:48;;;;;;;8.13;2.30;;;;;;;2.65;100.00;103516.22;10505098;28;20041;-80
2022/01/21 04:01:49;;;;;;;4.70;1.73;;;;;;;2.85;100.00;103525.91;10503108;28;20041;-81
2022/01/21 04:06:49;;;;;;;4.97;2.15;;;;;;;2.86;100.00;103523.13;10502526;28;20108;-80
2022/01/21 04:11:50;;;;;;;13.65;3.97;;;;;;;2.95;100.00;103511.06;10503197;28;20036;-80
2022/01/21 04:16:50;;;;;;;7.70;2.47;;;;;;;3.03;100.00;103527.56;10523115;28;20028;-79
2022/01/21 04:21:51;;;;;;;2.03;1.90;;;;;;;3.11;100.00;103522.66;10503231;28;20090;-80
2022/01/21 04:26:51;;;;;;;7.10;2.83;;;;;;;3.25;100.00;103537.94;10503953;28;20064;-80
2022/01/21 04:31:52;;;;;;;10.23;2.50;;;;;;;3.35;100.00;103528.47;10502543;28;20047;-79
2022/01/21 04:36:52;;;;;;;17.67;3.58;;;;;;;3.17;100.00;103516.97;10503921;28;20032;-79
2022/01/21 04:47:20;;;;;;;18.70;3.30;;;;;;;2.77;100.00;103528.97;10501204;28;20476;-79
2022/01/21 04:52:21;;;;;;;6.55;2.33;;;;;;;2.58;100.00;103530.88;10485536;28;20050;-80
2022/01/21 04:57:22;;;;;;;6.30;2.58;;;;;;;2.41;100.00;103529.97;10482855;28;20396;-79
2022/01/21 05:02:24;;;;;;;8.23;2.75;;;;;;;2.35;100.00;103537.44;10499158;28;20056;-79
2022/01/21 05:07:26;;;;;;;4.50;2.30;;;;;;;2.26;100.00;103536.09;10500307;28;20072;-80
2022/01/21 05:12:28;;;;;;;10.15;2.47;;;;;;;2.12;100.00;103538.63;10501554;28;20036;-81
2022/01/21 05:17:29;;;;;;;16.23;3.38;;;;;;;2.12;100.00;103531.47;10499284;28;20037;-80
2022/01/21 05:22:30;;;;;;;11.18;4.35;;;;;;;2.09;100.00;103519.09;10500285;28;20501;-81
2022/01/21 05:27:30;;;;;;;12.05;3.40;;;;;;;2.07;100.00;103523.69;10498616;28;20098;-79
2022/01/21 05:32:31;;;;;;;14.82;2.65;;;;;;;2.33;100.00;103518.81;10482353;28;20049;-79
2022/01/21 05:37:31;;;;;;;5.25;2.47;;;;;;;2.76;100.00;103525.44;10499462;28;20395;-77
2022/01/21 05:42:34;;;;;;;8.50;3.17;;;;;;;3.01;100.00;103514.25;10497268;28;20087;-81
2022/01/21 05:47:34;;;;;;;13.88;3.70;;;;;;;3.05;100.00;103506.06;10498941;28;20048;-80
2022/01/21 05:52:40;;;;;;;16.63;4.65;;;;;;;2.83;100.00;103501.88;10482421;28;20028;-83
2022/01/21 05:57:41;;;;;;;16.27;3.25;;;;;;;2.65;100.00;103501.06;10460703;28;20107;-80
2022/01/21 06:02:41;;;;;;;16.55;3.83;;;;;;;2.51;100.00;103520.50;10479683;28;20048;-82
2022/01/21 06:07:42;;;;;;;7.47;3.38;;;;;;;2.41;100.00;103519.25;10503545;28;20127;-81
2022/01/21 06:12:42;;;;;;;13.93;4.00;;;;;;;2.40;100.00;103522.03;10502762;28;20471;-81
2022/01/21 06:17:42;;;;;;;5.38;3.10;;;;;;;2.65;100.00;103522.47;10506237;28;20028;-81
2022/01/21 06:22:43;;;;;;;19.45;4.43;;;;;;;2.89;100.00;103525.63;10511787;28;20032;-79
2022/01/21 06:27:45;;;;;;;8.25;3.28;;;;;;;3.27;100.00;103533.38;10506199;28;20032;-81
2022/01/21 06:32:45;;;;;;;18.73;4.85;;;;;;;3.56;100.00;103541.59;10490049;28;20472;-82
2022/01/21 06:37:45;;;;;;;16.10;3.55;;;;;;;3.75;100.00;103538.75;10499583;28;20114;-81
2022/01/21 06:42:50;;;;;;;16.13;3.72;;;;;;;3.82;100.00;103543.66;10506243;28;20044;-81
2022/01/21 06:47:50;;;;;;;13.80;3.92;;;;;;;3.89;100.00;103555.78;10504978;28;20033;-82
2022/01/21 06:52:50;;;;;;;14.32;2.92;;;;;;;3.87;100.00;103552.31;10507617;28;20368;-82
2022/01/21 06:57:51;;;;;;;11.63;3.50;;;;;;;3.74;100.00;103545.94;10506486;28;20047;-81
2022/01/21 07:02:52;;;;;;;7.18;3.28;;;;;;;3.79;100.00;103543.81;10512000;28;20503;-82
2022/01/21 07:07:55;;;;;;;19.40;3.75;;;;;;;3.80;100.00;103534.84;10506197;28;20036;-81
2022/01/21 07:12:56;;;;;;;10.75;3.03;;;;;;;3.77;100.00;103545.75;10504329;28;20090;-83
2022/01/21 07:17:57;;;;;;;15.90;4.07;;;;;;;3.77;100.00;103559.16;10504706;28;20439;-80
2022/01/21 07:22:57;;;;;;;14.43;4.13;;;;;;;3.69;100.00;103553.34;10505844;28;20059;-82
2022/01/21 07:27:58;;;;;;;25.35;6.35;;;;;;;3.53;100.00;103552.50;10506106;28;20539;-81
2022/01/21 07:32:58;;;;;;;31.23;6.80;;;;;;;3.47;100.00;103570.63;10505404;28;20518;-82
2022/01/21 07:37:59;;;;;;;25.75;6.07;;;;;;;3.39;100.00;103570.22;10504849;28;20037;-80
2022/01/21 07:42:59;;;;;;;26.15;5.57;;;;;;;3.49;100.00;103584.81;10486444;28;20052;-80
2022/01/21 07:48:00;;;;;;;14.35;4.63;;;;;;;3.84;100.00;103589.16;10502904;28;20040;-81
2022/01/21 07:53:01;;;;;;;13.50;3.25;;;;;;;4.19;100.00;103565.66;10502670;28;20032;-81
2022/01/21 07:58:01;;;;;;;17.50;3.50;;;;;;;4.48;100.00;103563.91;10503748;28;20127;-81
2022/01/21 08:03:02;;;;;;;7.72;4.28;;;;;;;4.71;100.00;103567.03;10502225;28;20044;-82
2022/01/21 08:08:02;;;;;;;16.40;2.65;;;;;;;4.82;100.00;103568.09;10503551;28;20033;-81
2022/01/21 08:13:03;;;;;;;17.00;3.55;;;;;;;4.90;100.00;103552.38;10505001;28;20372;-83
2022/01/21 08:18:03;;;;;;;9.73;3.38;;;;;;;5.09;100.00;103559.28;10503785;28;20072;-80
2022/01/21 08:23:04;;;;;;;11.48;4.25;;;;;;;5.34;100.00;103574.72;10501557;28;20029;-82
2022/01/21 08:28:04;;;;;;;12.25;4.63;;;;;;;5.52;100.00;103580.72;10503205;28;20464;-81
2022/01/21 08:33:05;;;;;;;11.05;2.95;;;;;;;5.62;100.00;103581.88;10503600;28;20036;-81
2022/01/21 08:38:05;;;;;;;14.73;3.40;;;;;;;5.60;100.00;103575.72;10501219;28;20115;-81
2022/01/21 08:43:05;;;;;;;3.33;2.47;;;;;;;5.67;100.00;103576.19;10491829;28;20067;-81
2022/01/21 08:48:06;;;;;;;8.80;4.25;;;;;;;6.27;100.00;103573.13;10491579;28;20083;-80
2022/01/21 08:53:35;;;;;;;10.75;3.40;;;;;;;6.83;100.00;103568.38;10501631;28;20032;-81
2022/01/21 08:58:27;;;;;;;8.77;2.45;;;;;;;7.02;100.00;103573.34;10500167;28;20041;-80
2022/01/21 09:03:27;;;;;;;12.20;4.03;;;;;;;6.84;100.00;103569.22;10500697;28;20033;-79
2022/01/21 09:08:30;;;;;;;3.50;2.42;;;;;;;6.62;100.00;103569.88;10500693;28;20072;-79
2022/01/21 09:13:32;;;;;;;17.70;4.15;;;;;;;6.52;100.00;103570.50;10484124;28;20028;-80
2022/01/21 09:18:44;;;;;;;12.43;2.92;;;;;;;6.47;100.00;103574.47;10466998;28;20457;-79
2022/01/21 09:23:48;;;;;;;14.00;4.10;;;;;;;6.41;100.00;103556.91;10499159;28;20477;-78
2022/01/21 09:28:49;;;;;;;4.32;2.70;;;;;;;6.47;100.00;103569.06;10498640;28;20037;-80
2022/01/21 09:33:49;;;;;;;19.33;4.20;;;;;;;6.55;100.00;103572.13;10499627;28;20120;-80
2022/01/21 09:38:50;;;;;;;13.50;3.60;;;;;;;6.60;100.00;103566.41;10497892;28;20072;-80
2022/01/21 09:43:53;;;;;;;7.10;1.80;;;;;;;6.67;100.00;103563.19;10501749;28;20419;-80
2022/01/21 09:49:06;;;;;;;4.97;2.25;;;;;;;6.80;100.00;103575.81;10501549;28;20442;-80
2022/01/21 09:54:06;;;;;;;2.70;1.98;;;;;;;6.98;100.00;103575.34;10502389;28;20429;-81
2022/01/21 09:59:07;;;;;;;3.05;2.42;;;;;;;7.10;100.00;103576.34;10499515;28;20112;-81
2022/01/21 10:04:07;;;;;;;7.72;2.08;;;;;;;7.12;100.00;103579.78;10498254;28;20029;-80
2022/01/21 10:09:08;;;;;;;4.35;1.83;;;;;;;7.07;100.00;103581.09;10480334;28;20115;-81
2022/01/21 10:14:08;;;;;;;4.57;1.63;;;;;;;7.39;100.00;103587.72;10480517;28;20040;-80
2022/01/21 10:19:10;;;;;;;14.35;2.90;;;;;;;8.92;100.00;103583.41;10497402;28;20037;-80
2022/01/21 10:24:14;;;;;;;7.38;2.95;;;;;;;10.39;100.00;103600.31;10496308;28;20426;-79
2022/01/21 10:29:14;;;;;;;9.10;2.33;;;;;;;9.43;100.00;103592.91;10497222;28;20082;-79
2022/01/21 10:34:15;;;;;;;6.93;2.60;;;;;;;8.70;100.00;103595.03;10498361;28;20064;-79
2022/01/21 10:39:28;;;;;;;17.60;2.85;;;;;;;8.27;100.00;103586.66;10498571;28;20123;-78
2022/01/21 10:44:30;;;;;;;4.50;1.63;;;;;;;8.07;100.00;103589.03;10497767;28;20039;-78
2022/01/21 10:49:30;;;;;;;17.77;3.35;;;;;;;7.93;100.00;103586.50;10498490;28;20029;-78
2022/01/21 10:54:31;;;;;;;4.82;2.35;;;;;;;7.74;100.00;103589.69;10464058;28;20035;-79
2022/01/21 10:59:58;;;;;;;10.63;2.58;;;;;;;7.75;100.00;103577.91;10502805;28;20100;-79
2022/01/21 11:05:02;;;;;;;5.10;2.17;;;;;;;8.39;100.00;103577.63;10499270;28;20422;-78
2022/01/21 11:10:02;;;;;;;15.23;2.90;;;;;;;8.50;100.00;103566.03;10480620;28;20035;-80
2022/01/21 11:15:04;;;;;;;15.75;3.65;;;;;;;8.71;100.00;103568.88;10496131;28;20460;-79
2022/01/21 11:20:15;;;;;;;17.08;5.05;;;;;;;10.65;100.00;103570.97;10462304;28;20025;-79
2022/01/21 11:25:16;;;;;;;13.15;4.43;;;;;;;10.35;100.00;103563.66;10496826;28;20474;-80
2022/01/21 11:30:16;;;;;;;4.22;2.58;;;;;;;9.38;100.00;103560.84;10504030;28;20036;-79
2022/01/21 11:35:16;;;;;;;10.65;3.67;;;;;;;8.65;100.00;103569.34;10503566;28;20024;-79
2022/01/21 11:40:17;;;;;;;13.48;4.20;;;;;;;8.34;100.00;103569.00;10505403;28;20144;-79
2022/01/21 11:46:16;;;;;;;17.20;3.25;;;;;;;8.14;100.00;103566.00;10503979;28;20456;-79
2022/01/21 11:50:39;;;;;;;9.05;4.00;;;;;;;8.26;100.00;103566.03;10491755;28;20468;-80
2022/01/21 11:55:45;;;;;;;7.30;4.15;;;;;;;8.72;100.00;103547.16;10469545;28;20037;-80
2022/01/21 12:00:49;;;;;;;13.00;3.85;;;;;;;8.70;100.00;103550.97;10505198;28;20162;-78
2022/01/21 12:05:50;;;;;;;7.93;3.88;;;;;;;8.47;100.00;103539.25;10502674;28;20064;-79
2022/01/21 12:10:50;;;;;;;13.20;4.63;;;;;;;8.43;100.00;103546.75;10502791;28;20070;-80
2022/01/21 12:21:03;;;;;;;13.88;2.70;;;;;;;8.34;100.00;103540.16;10501942;28;20075;-79
2022/01/21 12:26:09;;;;;;;11.63;3.58;;;;;;;8.23;100.00;103542.84;10504120;28;20033;-79
2022/01/21 12:31:10;;;;;;;7.70;3.00;;;;;;;8.04;100.00;103535.28;10502517;28;20032;-77
2022/01/21 12:36:10;;;;;;;12.45;2.78;;;;;;;7.90;100.00;103533.59;10501404;28;20056;-76
2022/01/21 12:41:17;;;;;;;9.57;3.10;;;;;;;7.59;100.00;103532.31;10501859;28;20083;-77
2022/01/21 12:46:17;;;;;;;11.23;3.90;;;;;;;7.23;100.00;103525.13;10503279;28;20089;-77
2022/01/21 12:56:28;;;;;;;26.00;5.68;;;;;;;6.73;100.00;103525.06;10501693;28;20036;-77
2022/01/21 13:01:35;;;;;;;13.73;5.50;;;;;;;6.57;100.00;103518.16;10499329;28;20032;-76
2022/01/21 13:06:48;;;;;;;13.82;3.55;;;;;;;6.47;100.00;103529.56;10499325;28;20391;-75
2022/01/21 13:11:53;;;;;;;15.25;4.47;;;;;;;6.49;100.00;103535.72;10500489;28;20480;-75
2022/01/21 13:17:00;;;;;;;19.88;5.90;;;;;;;6.46;100.00;103519.78;10499300;28;20033;-75
2022/01/21 13:22:00;;;;;;;16.20;5.05;;;;;;;6.43;100.00;103527.19;10500910;28;20025;-76
2022/01/21 13:27:00;;;;;;;16.30;4.55;;;;;;;6.40;100.00;103506.72;10498050;28;20484;-76
2022/01/21 13:32:03;;;;;;;10.90;3.17;;;;;;;6.40;100.00;103497.81;10499308;28;20060;-75
2022/01/21 13:37:04;;;;;;;12.32;4.22;;;;;;;6.43;100.00;103511.91;10500267;28;20025;-76
2022/01/21 13:42:28;;;;;;;27.85;4.22;;;;;;;6.48;100.00;103501.69;10498989;28;20052;-76
2022/01/21 13:47:39;;;;;;;14.27;4.88;;;;;;;6.62;100.00;103511.50;10499906;28;20051;-76
2022/01/21 13:52:52;;;;;;;14.90;3.60;;;;;;;6.71;100.00;103508.16;10480718;28;20436;-76
2022/01/21 13:57:52;;;;;;;8.45;3.40;;;;;;;6.80;100.00;103513.88;10498729;28;20139;-76
2022/01/21 14:03:22;;;;;;;24.38;5.45;;;;;;;6.91;100.00;103497.78;10498667;28;20047;-76
2022/01/21 14:08:25;;;;;;;13.80;3.67;;;;;;;6.96;100.00;103498.34;10497260;28;20059;-76
2022/01/21 14:13:27;;;;;;;6.70;3.88;;;;;;;6.84;100.00;103499.22;10498310;28;20036;-76
2022/01/21 14:18:31;;;;;;;5.80;3.03;;;;;;;6.79;100.00;103491.44;10500224;28;20033;-77
2022/01/21 14:23:33;;;;;;;28.70;6.57;;;;;;;6.80;100.00;103482.41;10498200;28;20134;-76
2022/01/21 14:28:45;;;;;;;18.17;3.60;;;;;;;6.70;100.00;103494.78;10496878;28;20039;-77
2022/01/21 14:33:45;;;;;;;9.45;3.10;;;;;;;6.68;100.00;103497.59;10498975;28;20039;-76
2022/01/21 14:38:49;;;;;;;19.23;3.92;;;;;;;6.88;100.00;103496.19;10497165;28;20531;-77
2022/01/21 14:43:54;;;;;;;13.20;3.72;;;;;;;7.60;100.00;103487.38;10481495;28;20035;-76
2022/01/21 14:48:59;;;;;;;25.30;4.68;;;;;;;8.03;100.00;103484.13;10497696;28;20035;-77
2022/01/21 14:54:14;;;;;;;24.27;3.70;;;;;;;7.84;100.00;103481.97;10496809;28;20559;-76
2022/01/21 14:59:15;;;;;;;9.20;3.38;;;;;;;7.62;100.00;103490.78;10497425;28;20037;-77
2022/01/21 15:04:16;;;;;;;9.10;3.63;;;;;;;7.49;100.00;103490.00;10504327;28;20130;-77
2022/01/21 15:09:28;;;;;;;19.58;4.53;;;;;;;7.36;100.00;103488.19;10505366;28;20111;-77
2022/01/21 15:14:43;;;;;;;7.72;3.00;;;;;;;7.10;100.00;103482.03;10506316;28;20032;-77
2022/01/21 15:19:44;;;;;;;8.57;4.68;;;;;;;6.91;100.00;103487.03;10505381;28;20464;-77
2022/01/21 15:24:44;;;;;;;12.95;3.83;;;;;;;6.75;100.00;103498.03;10504917;28;20040;-78
2022/01/21 15:29:45;;;;;;;10.88;3.13;;;;;;;6.57;100.00;103500.16;10505514;28;20480;-77
2022/01/21 15:34:45;;;;;;;14.23;3.30;;;;;;;6.39;100.00;103498.78;10504156;28;20056;-77
2022/01/21 15:39:46;;;;;;;7.25;3.17;;;;;;;6.17;100.00;103499.38;10504227;28;20067;-78
2022/01/21 15:44:47;;;;;;;8.85;3.42;;;;;;;6.02;100.00;103493.22;10504062;28;20519;-77
2022/01/21 15:49:48;;;;;;;10.52;3.08;;;;;;;5.98;100.00;103484.50;10503606;28;20487;-77
2022/01/21 15:54:48;;;;;;;10.88;3.35;;;;;;;5.97;100.00;103476.53;10502301;28;20036;-77
2022/01/21 15:59:49;;;;;;;20.55;5.22;;;;;;;5.94;100.00;103474.91;10503946;28;20094;-78
2022/01/21 16:04:50;;;;;;;15.60;4.03;;;;;;;5.78;100.00;103483.13;10502994;28;20518;-78
2022/01/21 16:09:50;;;;;;;11.75;3.97;;;;;;;5.72;100.00;103480.84;10503076;28;20457;-78
2022/01/21 16:14:51;;;;;;;21.38;4.78;;;;;;;5.77;100.00;103478.69;10484165;28;20032;-78
2022/01/21 16:19:52;;;;;;;11.05;3.75;;;;;;;5.85;100.00;103478.19;10500995;28;20475;-78
2022/01/21 16:24:52;;;;;;;10.85;3.17;;;;;;;5.97;100.00;103484.63;10501778;28;20033;-78
2022/01/21 16:29:53;;;;;;;17.52;3.92;;;;;;;6.00;100.00;103463.75;10502268;28;20040;-78
2022/01/21 16:34:53;;;;;;;5.50;3.30;;;;;;;6.01;100.00;103459.22;10500743;28;20067;-78
2022/01/21 16:39:56;;;;;;;16.88;5.18;;;;;;;6.02;100.00;103450.19;10501380;28;20135;-78
2022/01/21 16:44:56;;;;;;;5.18;3.65;;;;;;;6.08;100.00;103457.84;10501233;28;20085;-79
2022/01/21 16:49:57;;;;;;;10.60;3.03;;;;;;;6.11;100.00;103448.69;10501523;28;20098;-78
2022/01/21 16:54:57;;;;;;;16.25;4.25;;;;;;;6.12;100.00;103459.34;10501171;28;20024;-79
2022/01/21 16:59:58;;;;;;;18.55;5.32;;;;;;;6.11;100.00;103457.63;10502009;28;20071;-79
2022/01/21 17:04:59;;;;;;;15.43;4.63;;;;;;;6.09;100.00;103443.41;10501470;28;20033;-79
2022/01/21 17:09:59;;;;;;;17.52;5.50;;;;;;;6.04;100.00;103442.88;10500167;28;20424;-79
2022/01/21 17:14:59;;;;;;;10.13;4.18;;;;;;;5.93;100.00;103448.13;10498806;28;20123;-79
2022/01/21 17:20:00;;;;;;;14.30;5.57;;;;;;;5.85;100.00;103450.44;10500146;28;20078;-79
2022/01/21 17:25:00;;;;;;;13.73;5.22;;;;;;;5.80;100.00;103443.53;10499203;28;20068;-80
2022/01/21 17:30:01;;;;;;;19.42;5.85;;;;;;;5.71;100.00;103454.94;10498278;28;20028;-79
2022/01/21 17:35:02;;;;;;;18.25;4.35;;;;;;;5.70;100.00;103460.41;10499592;28;20032;-79
2022/01/21 17:40:07;;;;;;;13.68;4.80;;;;;;;5.74;100.00;103453.84;10497948;28;20155;-79
2022/01/21 17:45:12;;;;;;;14.60;4.97;;;;;;;5.75;100.00;103451.06;10498169;28;20077;-79
2022/01/21 17:50:12;;;;;;;11.52;3.65;;;;;;;5.67;100.00;103452.53;10499964;28;20079;-79
2022/01/21 17:55:12;;;;;;;13.77;3.63;;;;;;;5.45;100.00;103453.94;10499774;28;20036;-80
2022/01/21 18:00:15;;;;;;;23.25;5.85;;;;;;;5.21;100.00;103467.19;10499096;28;20032;-80
2022/01/21 18:05:15;;;;;;;12.60;4.00;;;;;;;5.02;100.00;103461.28;10499453;28;20048;-79
2022/01/21 18:10:32;;;;;;;15.93;4.78;;;;;;;4.81;100.00;103444.69;10499451;28;20368;-78
2022/01/21 18:15:33;;;;;;;21.25;5.93;;;;;;;4.67;100.00;103450.94;10499240;28;20090;-79
2022/01/21 18:20:33;;;;;;;11.90;4.38;;;;;;;4.58;100.00;103441.63;10497337;28;20040;-78
2022/01/21 18:25:34;;;;;;;13.25;4.63;;;;;;;4.51;100.00;103421.53;10498528;28;20055;-79
2022/01/21 18:30:34;;;;;;;5.03;4.18;;;;;;;4.40;100.00;103424.00;10497848;28;20040;-80
2022/01/21 18:35:35;;;;;;;9.85;4.45;;;;;;;4.30;100.00;103437.13;10502503;28;20078;-80
2022/01/21 18:40:38;;;;;;;15.65;5.25;;;;;;;4.48;100.00;103442.31;10511186;28;20056;-80
2022/01/21 18:45:47;;;;;;;11.55;4.28;;;;;;;4.57;100.00;103444.44;10510275;28;20391;-80
2022/01/21 18:50:48;;;;;;;5.25;4.15;;;;;;;4.77;100.00;103451.22;10513045;28;20349;-78
2022/01/21 18:55:49;;;;;;;15.10;4.07;;;;;;;4.79;100.00;103450.19;10510426;28;20429;-80
2022/01/21 19:00:50;;;;;;;4.63;3.80;;;;;;;4.80;100.00;103453.72;10511756;28;20037;-80
2022/01/21 19:05:51;;;;;;;23.77;5.50;;;;;;;4.88;100.00;103460.34;10511443;28;20091;-80
2022/01/21 19:10:52;;;;;;;17.70;4.60;;;;;;;4.96;100.00;103470.56;10511571;28;20068;-80
2022/01/21 19:15:52;;;;;;;11.38;3.72;;;;;;;5.10;100.00;103473.22;10509345;28;20060;-80
2022/01/21 19:20:54;;;;;;;8.32;4.00;;;;;;;5.17;100.00;103462.09;10511909;28;20043;-80
2022/01/21 19:25:57;;;;;;;15.38;4.72;;;;;;;5.31;100.00;103451.31;10510697;28;20395;-80
2022/01/21 19:31:00;;;;;;;12.20;4.65;;;;;;;5.43;100.00;103446.97;10511221;28;20465;-80
2022/01/21 19:36:01;;;;;;;10.20;4.25;;;;;;;5.53;100.00;103445.41;10510974;28;20029;-80
2022/01/21 19:41:02;;;;;;;20.33;3.63;;;;;;;5.63;100.00;103446.50;10510806;28;20037;-79
2022/01/21 19:46:06;;;;;;;23.08;3.92;;;;;;;5.69;100.00;103451.47;10508039;28;20134;-80
2022/01/21 19:51:07;;;;;;;12.23;3.25;;;;;;;5.76;100.00;103457.31;10504010;28;20063;-80
2022/01/21 19:56:09;;;;;;;9.27;3.05;;;;;;;5.83;100.00;103462.16;10502675;28;20024;-80
2022/01/21 20:07:46;;;;;;;3.10;2.03;;;;;;;5.87;100.00;103456.56;10503949;28;20147;-81
2022/01/21 20:16:46;;;;;;;6.15;2.72;;;;;;;5.98;100.00;103454.91;10503169;28;20067;-80
2022/01/21 20:21:46;;;;;;;6.00;2.70;;;;;;;6.00;100.00;103463.75;10503710;28;20036;-80
2022/01/21 20:26:48;;;;;;;4.22;2.75;;;;;;;5.98;100.00;103462.13;10503297;28;20036;-81
2022/01/21 20:31:53;;;;;;;16.70;3.20;;;;;;;6.01;100.00;103457.38;10501996;28;20032;-79
2022/01/21 20:36:58;;;;;;;2.75;2.53;;;;;;;6.00;100.00;103450.31;10503652;28;20024;-80
2022/01/21 20:42:08;;;;;;;3.13;2.70;;;;;;;6.02;100.00;103467.16;10502653;28;20341;-80
2022/01/21 20:47:09;;;;;;;5.75;2.63;;;;;;;6.05;100.00;103466.09;10503219;28;20033;-81
2022/01/21 20:52:10;;;;;;;3.58;2.08;;;;;;;6.04;100.00;103469.78;10500271;28;20028;-80
2022/01/21 20:57:11;;;;;;;6.70;1.88;;;;;;;6.03;100.00;103458.16;10501433;28;20341;-80
2022/01/21 21:02:12;;;;;;;10.32;3.50;;;;;;;6.02;100.00;103453.72;10440035;28;20052;-79
2022/01/21 21:07:13;;;;;;;24.48;3.30;;;;;;;6.03;100.00;103457.28;10500949;28;20036;-79
2022/01/21 21:12:14;;;;;;;8.23;3.05;;;;;;;6.03;100.00;103442.03;10501028;28;20024;-79
2022/01/21 21:27:42;;;;;;;10.77;2.85;;;;;;;6.03;100.00;103450.09;10500520;28;20434;-80
2022/01/21 23:02:50;;;;;;;18.48;8.35;;;;;;;5.86;100.00;103455.72;10496830;28;20119;-79
2022/01/21 23:07:56;;;;;;;11.48;4.93;;;;;;;5.90;100.00;103459.03;10496609;28;20379;-79
2022/01/21 23:12:56;;;;;;;9.85;4.88;;;;;;;5.93;100.00;103462.41;10497407;28;20037;-80
2022/01/21 23:17:59;;;;;;;18.52;6.85;;;;;;;5.96;100.00;103470.28;10496837;28;20465;-80
2022/01/21 23:22:59;;;;;;;7.95;6.30;;;;;;;6.00;100.00;103471.81;10499119;28;20062;-80
2022/01/21 23:28:10;;;;;;;5.68;4.35;;;;;;;6.03;100.00;103477.00;10503948;28;20067;-80
2022/01/21 23:33:10;;;;;;;9.48;6.13;;;;;;;6.07;100.00;103482.16;10506228;28;20115;-80
2022/01/21 23:43:11;;;;;;;9.85;6.35;;;;;;;6.12;100.00;103470.09;10502854;28;20056;-81
2022/01/21 23:48:12;;;;;;;10.60;6.43;;;;;;;6.17;100.00;103467.97;10503291;28;20369;-80
2022/01/21 23:53:13;;;;;;;11.90;6.68;;;;;;;6.20;100.00;103472.28;10504166;28;20035;-79
2022/01/21 23:58:13;;;;;;;16.17;5.70;;;;;;;6.22;100.00;103467.63;10505383;28;20043;-80
